Time;durP1;ratioP1;P1;durP2;ratioP2;P2;SDS_P1;SDS_P2;PMS_P1;PMS_P2;Temp;Humidity;BMP_temperature;BMP_pressure;BME280_temperature;BME280_humidity;BME280_pressure;Samples;Min_cycle;Max_cycle;Signal;HPM_P1;HPM_P2
2022/07/08 00:00:14;;;;;;;11.83;2.33;;;;;;;12.88;80.99;102922.84;4988316;28;20030;-84
2022/07/08 00:02:39;;;;;;;12.05;1.65;;;;;;;12.84;82.22;102922.50;4989712;28;20030;-84
2022/07/08 00:05:05;;;;;;;11.02;1.80;;;;;;;12.81;82.21;102922.13;4988608;28;20022;-84
2022/07/08 00:07:30;;;;;;;11.00;1.80;;;;;;;12.93;81.85;102927.59;4989384;28;20446;-84
2022/07/08 00:09:55;;;;;;;8.53;1.50;;;;;;;12.96;82.33;102927.97;4971772;28;20026;-84
2022/07/08 00:12:21;;;;;;;4.13;1.40;;;;;;;13.08;82.28;102933.44;4990084;28;20022;-85
2022/07/08 00:14:46;;;;;;;11.75;1.73;;;;;;;13.11;81.86;102927.63;4989596;28;20030;-85
2022/07/08 00:17:11;;;;;;;9.30;1.87;;;;;;;13.22;81.49;102933.28;5000862;28;20077;-84
2022/07/08 00:19:37;;;;;;;11.27;1.80;;;;;;;13.30;81.10;102930.31;4999897;28;20034;-85
2022/07/08 00:22:02;;;;;;;9.13;1.83;;;;;;;13.28;81.50;102933.22;4999371;28;20050;-86
2022/07/08 00:24:28;;;;;;;10.82;1.77;;;;;;;13.27;82.29;102926.19;4980737;28;20023;-84
2022/07/08 00:26:53;;;;;;;13.77;2.20;;;;;;;13.33;81.21;102916.38;4991268;28;20037;-84
2022/07/08 00:29:18;;;;;;;10.80;1.70;;;;;;;13.35;80.68;102921.56;4989095;28;20030;-84
2022/07/08 00:31:44;;;;;;;7.53;1.83;;;;;;;13.37;80.29;102922.16;4989596;28;20034;-85
2022/07/08 00:34:09;;;;;;;12.27;2.10;;;;;;;13.43;80.48;102930.19;4990841;28;20030;-85
2022/07/08 00:36:35;;;;;;;9.15;1.85;;;;;;;13.39;81.07;102934.34;4989047;28;20054;-85
2022/07/08 00:39:02;;;;;;;10.23;1.60;;;;;;;13.33;80.94;102933.38;4989370;28;20520;-85
2022/07/08 00:41:27;;;;;;;6.87;1.93;;;;;;;13.22;81.31;102917.97;4990015;28;20329;-85
2022/07/08 00:43:53;;;;;;;11.90;2.10;;;;;;;13.06;81.73;102907.78;4998610;28;20069;-85
2022/07/08 00:46:19;;;;;;;12.50;1.87;;;;;;;12.99;81.31;102926.69;4994001;28;20030;-85
2022/07/08 00:48:44;;;;;;;6.35;1.67;;;;;;;12.86;82.36;102931.16;4988855;28;20033;-85
2022/07/08 00:51:12;;;;;;;8.68;1.80;;;;;;;12.76;82.89;102935.41;4989558;28;20089;-85
2022/07/08 00:53:43;;;;;;;6.27;1.70;;;;;;;12.71;83.61;102938.75;4989847;28;20445;-85
2022/07/08 00:56:09;;;;;;;7.80;1.88;;;;;;;12.67;83.92;102948.31;4989269;28;20026;-85
2022/07/08 00:58:37;;;;;;;6.93;1.77;;;;;;;12.59;84.07;102927.88;4988376;28;20030;-85
2022/07/08 01:01:03;;;;;;;11.07;2.00;;;;;;;12.60;84.81;102942.19;4989401;28;20037;-84
2022/07/08 01:03:29;;;;;;;6.72;1.70;;;;;;;12.51;84.46;102942.44;4990502;28;20034;-85
2022/07/08 01:05:54;;;;;;;7.70;2.00;;;;;;;12.39;84.92;102934.25;4989270;28;20030;-85
2022/07/08 01:08:20;;;;;;;11.32;2.08;;;;;;;12.32;85.25;102940.72;4987829;28;20033;-85
2022/07/08 01:10:45;;;;;;;11.03;2.30;;;;;;;12.26;86.06;102940.53;4987468;28;20480;-85
2022/07/08 01:13:11;;;;;;;11.23;1.83;;;;;;;12.21;86.41;102940.38;4992546;28;20067;-85
2022/07/08 01:15:36;;;;;;;10.07;2.17;;;;;;;12.15;86.68;102945.78;4975362;28;20474;-85
2022/07/08 01:18:02;;;;;;;14.30;2.70;;;;;;;12.08;87.14;102938.59;4992541;28;20038;-84
2022/07/08 01:20:31;;;;;;;12.80;2.00;;;;;;;11.96;87.08;102935.75;4990844;28;20034;-84
2022/07/08 01:22:56;;;;;;;13.67;2.30;;;;;;;11.91;87.32;102942.81;4992323;28;20026;-84
2022/07/08 01:25:22;;;;;;;10.55;2.05;;;;;;;11.86;87.71;102937.25;4992187;28;20084;-84
2022/07/08 01:27:47;;;;;;;10.33;2.10;;;;;;;11.75;87.79;102933.38;4992008;28;20033;-83
2022/07/08 01:30:12;;;;;;;7.67;1.90;;;;;;;11.75;88.05;102938.75;4991656;28;20470;-83
2022/07/08 01:32:42;;;;;;;10.07;2.17;;;;;;;11.59;87.86;102924.78;4991834;28;20034;-84
2022/07/08 01:35:08;;;;;;;5.95;2.03;;;;;;;11.57;88.35;102926.84;4992637;28;20034;-84
2022/07/08 01:37:37;;;;;;;12.00;2.50;;;;;;;11.51;88.52;102927.69;4972614;28;20035;-84
2022/07/08 01:40:03;;;;;;;8.05;2.00;;;;;;;11.47;89.34;102929.97;4973611;28;20029;-84
2022/07/08 01:42:28;;;;;;;8.10;1.85;;;;;;;11.44;89.40;102934.94;4991710;28;20026;-84
2022/07/08 01:44:53;;;;;;;11.10;2.37;;;;;;;11.38;89.64;102936.63;4996648;28;20030;-84
2022/07/08 01:47:19;;;;;;;11.27;2.30;;;;;;;11.39;89.35;102929.38;4993269;28;20026;-85
2022/07/08 01:49:45;;;;;;;11.60;2.20;;;;;;;11.33;89.88;102931.88;4992229;28;20377;-84
2022/07/08 01:52:10;;;;;;;11.30;2.47;;;;;;;11.25;90.11;102925.91;4999469;28;20034;-84
2022/07/08 01:54:36;;;;;;;11.27;2.05;;;;;;;11.24;90.24;102925.09;4977201;28;20524;-84
2022/07/08 01:57:16;;;;;;;12.47;2.23;;;;;;;11.16;90.86;102919.94;4991873;28;20038;-84
2022/07/08 01:59:43;;;;;;;8.43;2.08;;;;;;;11.10;90.99;102915.44;4990305;28;20141;-84
2022/07/08 02:02:09;;;;;;;9.30;2.20;;;;;;;11.12;91.34;102926.78;4991369;28;20039;-84
2022/07/08 02:04:38;;;;;;;11.27;2.17;;;;;;;11.05;91.48;102916.03;4991061;28;20146;-84
2022/07/08 02:07:03;;;;;;;7.00;2.13;;;;;;;10.98;91.11;102916.06;4992213;28;20278;-84
2022/07/08 02:09:29;;;;;;;14.43;2.38;;;;;;;10.98;91.40;102921.44;4991021;28;20027;-84
2022/07/08 02:14:38;;;;;;;15.55;2.45;;;;;;;10.94;91.88;102933.63;4988598;28;20046;-84
2022/07/08 02:17:04;;;;;;;13.98;2.05;;;;;;;10.89;91.60;102928.06;4992277;28;20030;-84
2022/07/08 02:19:30;;;;;;;10.30;2.63;;;;;;;10.87;92.42;102938.16;4989897;28;20502;-84
2022/07/08 02:21:56;;;;;;;8.27;2.30;;;;;;;10.86;92.40;102923.09;4991211;28;20037;-84
2022/07/08 02:24:21;;;;;;;7.50;2.00;;;;;;;10.82;93.02;102928.06;4990897;28;20511;-84
2022/07/08 02:26:46;;;;;;;11.15;2.35;;;;;;;10.77;92.73;102922.50;4991196;28;20030;-84
2022/07/08 02:29:12;;;;;;;7.73;2.50;;;;;;;10.81;92.69;102933.63;4990094;28;20125;-86
2022/07/08 02:31:37;;;;;;;14.70;2.10;;;;;;;10.80;93.00;102945.38;4997535;28;20508;-84
2022/07/08 02:34:02;;;;;;;12.07;2.53;;;;;;;10.72;92.66;102930.34;5000276;28;20018;-84
2022/07/08 02:36:28;;;;;;;11.60;2.40;;;;;;;10.80;93.16;102937.34;4990730;28;20041;-84
2022/07/08 02:38:53;;;;;;;6.27;2.27;;;;;;;10.80;93.20;102937.34;4989632;28;20188;-84
2022/07/08 02:41:18;;;;;;;13.75;2.95;;;;;;;10.82;93.89;102932.59;4990840;28;20514;-84
2022/07/08 02:43:44;;;;;;;10.33;2.50;;;;;;;10.76;93.30;102934.25;4989801;28;20035;-84
2022/07/08 02:46:09;;;;;;;9.67;2.33;;;;;;;10.82;94.08;102941.47;5006039;23;20050;-84
2022/07/08 02:48:34;;;;;;;9.93;2.50;;;;;;;10.89;93.77;102944.97;5022982;28;20029;-83
2022/07/08 02:50:59;;;;;;;10.37;2.90;;;;;;;10.91;93.17;102934.03;5029629;28;20060;-84
2022/07/08 02:53:25;;;;;;;10.40;2.43;;;;;;;10.86;92.96;102920.44;5031154;28;20492;-84
2022/07/08 02:55:50;;;;;;;9.17;2.43;;;;;;;10.88;93.52;102937.94;5028998;28;20033;-84
2022/07/08 02:58:15;;;;;;;8.20;2.30;;;;;;;10.89;93.75;102936.09;5026817;28;20032;-84
2022/07/08 03:00:40;;;;;;;16.37;3.13;;;;;;;10.78;93.48;102923.31;5027759;28;20040;-83
2022/07/08 03:03:06;;;;;;;7.37;2.00;;;;;;;10.74;93.48;102921.06;5029960;28;20361;-84
2022/07/08 03:05:31;;;;;;;11.90;2.30;;;;;;;10.73;94.15;102940.88;5028400;28;20051;-83
2022/07/08 03:07:57;;;;;;;11.37;2.00;;;;;;;10.68;93.50;102940.66;5029340;28;20023;-85
2022/07/08 03:10:22;;;;;;;12.55;2.80;;;;;;;10.59;93.67;102940.03;5027824;28;20036;-85
2022/07/08 03:12:47;;;;;;;8.97;2.10;;;;;;;10.58;93.87;102948.28;5028810;28;20040;-85
2022/07/08 03:15:12;;;;;;;7.37;2.23;;;;;;;10.51;93.91;102944.78;5029411;28;20029;-85
2022/07/08 03:17:38;;;;;;;11.00;2.60;;;;;;;10.46;93.99;102940.03;5030211;28;20051;-83
2022/07/08 03:20:04;;;;;;;13.30;2.67;;;;;;;10.48;94.15;102942.50;5027268;28;20087;-84
2022/07/08 03:22:29;;;;;;;13.95;2.50;;;;;;;10.45;94.91;102941.06;5028725;28;20379;-84
2022/07/08 03:24:55;;;;;;;10.70;2.43;;;;;;;10.37;94.75;102931.34;5028420;28;20033;-84
2022/07/08 03:27:20;;;;;;;10.97;2.20;;;;;;;10.39;95.19;102937.34;5030443;28;20044;-83
2022/07/08 03:29:45;;;;;;;8.60;3.00;;;;;;;10.37;95.17;102941.22;5026523;28;20025;-83
2022/07/08 03:32:10;;;;;;;11.55;2.60;;;;;;;10.34;95.36;102941.63;5026934;28;20476;-84
2022/07/08 03:34:38;;;;;;;12.20;2.90;;;;;;;10.36;95.44;102953.81;5024276;28;20028;-84
2022/07/08 03:37:04;;;;;;;14.57;2.72;;;;;;;10.35;95.58;102962.03;5027876;28;20029;-82
2022/07/08 03:39:29;;;;;;;6.47;2.50;;;;;;;10.32;95.60;102962.47;5025915;28;20033;-82
2022/07/08 03:41:54;;;;;;;7.20;2.77;;;;;;;10.28;95.21;102962.88;5027544;28;20583;-81
2022/07/08 03:44:19;;;;;;;8.73;2.60;;;;;;;10.25;96.47;102954.38;5029328;28;20074;-81
2022/07/08 03:46:45;;;;;;;8.77;2.30;;;;;;;10.27;96.30;102942.47;5026634;28;20045;-81
2022/07/08 03:49:10;;;;;;;8.50;2.50;;;;;;;10.33;96.12;102950.69;5028482;28;20370;-82
2022/07/08 03:51:35;;;;;;;15.97;2.60;;;;;;;10.35;96.31;102954.84;5028563;28;20033;-81
2022/07/08 03:54:00;;;;;;;7.73;2.90;;;;;;;10.36;96.26;102950.28;5029086;28;20017;-81
2022/07/08 03:56:26;;;;;;;10.55;2.10;;;;;;;10.41;96.19;102959.38;5029434;28;20140;-84
2022/07/08 03:58:51;;;;;;;8.43;2.43;;;;;;;10.41;95.96;102948.66;5011051;28;20033;-84
2022/07/08 04:01:17;;;;;;;9.97;2.60;;;;;;;10.48;96.02;102948.69;5028395;28;20500;-85
2022/07/08 04:03:42;;;;;;;7.63;2.30;;;;;;;10.51;96.64;102948.28;5029989;28;20036;-84
2022/07/08 04:06:07;;;;;;;9.73;2.57;;;;;;;10.52;95.81;102944.56;5029766;28;20021;-86
2022/07/08 04:08:32;;;;;;;5.40;2.37;;;;;;;10.57;94.85;102952.00;5029626;28;20030;-85
2022/07/08 04:10:58;;;;;;;10.87;2.43;;;;;;;10.56;94.55;102945.00;5028542;28;20331;-86
2022/07/08 04:13:26;;;;;;;11.20;2.60;;;;;;;10.57;95.35;102936.72;5029728;28;20030;-86
2022/07/08 04:15:52;;;;;;;10.13;2.55;;;;;;;10.66;95.61;102948.06;5029207;28;20052;-85
2022/07/08 04:18:17;;;;;;;9.30;2.87;;;;;;;10.64;95.58;102944.78;5028437;28;20033;-85
2022/07/08 04:20:42;;;;;;;7.73;2.13;;;;;;;10.74;96.02;102958.59;5028043;28;20393;-85
2022/07/08 04:23:08;;;;;;;11.03;2.30;;;;;;;10.77;95.46;102953.88;5029694;28;20033;-86
2022/07/08 04:25:33;;;;;;;11.20;2.77;;;;;;;10.82;96.11;102959.41;5027115;28;20029;-85
2022/07/08 04:27:58;;;;;;;9.03;2.30;;;;;;;10.86;95.33;102956.09;5029384;28;20497;-85
2022/07/08 04:30:24;;;;;;;9.70;2.33;;;;;;;10.96;95.34;102957.56;5028482;28;20076;-85
2022/07/08 04:32:50;;;;;;;9.63;2.30;;;;;;;11.01;94.90;102958.56;5029033;28;20025;-84
2022/07/08 04:35:15;;;;;;;8.07;2.45;;;;;;;11.04;94.51;102960.03;5027621;28;20120;-82
2022/07/08 04:37:40;;;;;;;12.37;2.50;;;;;;;11.03;95.15;102953.81;5029031;28;20428;-83
2022/07/08 04:40:06;;;;;;;13.50;2.70;;;;;;;11.13;94.17;102966.00;5028256;28;20033;-83
2022/07/08 04:42:32;;;;;;;10.50;2.30;;;;;;;11.16;94.33;102976.28;5028350;28;20026;-83
2022/07/08 04:44:57;;;;;;;10.43;2.50;;;;;;;11.23;94.55;102971.75;5028170;28;20021;-83
2022/07/08 04:47:31;;;;;;;10.20;2.70;;;;;;;11.43;94.43;102976.25;5032028;28;20044;-83
2022/07/08 04:49:56;;;;;;;11.43;2.75;;;;;;;11.72;93.43;102990.19;5030323;28;20099;-83
2022/07/08 04:52:21;;;;;;;9.10;2.43;;;;;;;11.81;92.50;102991.63;5031608;28;20112;-83
2022/07/08 04:54:47;;;;;;;15.27;2.77;;;;;;;12.03;92.55;102983.28;5031715;28;20037;-83
2022/07/08 04:57:12;;;;;;;9.93;2.33;;;;;;;13.23;89.32;102991.47;5032948;28;20435;-83
2022/07/08 04:59:37;;;;;;;12.82;2.35;;;;;;;14.74;82.39;103003.44;5031647;28;20041;-86
2022/07/08 05:02:03;;;;;;;12.63;2.47;;;;;;;16.09;76.39;102996.31;5020345;28;20123;-85
2022/07/08 05:04:28;;;;;;;7.33;2.20;;;;;;;16.97;71.56;103000.50;5011677;28;20036;-86
2022/07/08 05:06:54;;;;;;;7.38;2.17;;;;;;;17.62;68.42;103008.94;5022949;28;20033;-85
2022/07/08 05:09:19;;;;;;;9.67;2.53;;;;;;;18.24;65.85;103006.94;5029830;28;20113;-85
2022/07/08 05:11:44;;;;;;;15.10;2.43;;;;;;;18.85;63.49;103011.19;5030696;28;20053;-85
2022/07/08 05:14:13;;;;;;;11.17;2.27;;;;;;;19.36;61.05;103012.59;5032078;28;20072;-85
2022/07/08 05:16:39;;;;;;;11.40;2.40;;;;;;;19.76;59.02;103018.47;5031857;28;20473;-85
2022/07/08 05:19:12;;;;;;;10.13;2.30;;;;;;;20.20;57.40;103019.97;5032015;28;20030;-86
2022/07/08 05:21:38;;;;;;;12.80;2.28;;;;;;;20.46;56.43;103022.69;5028061;28;20536;-86
2022/07/08 05:24:04;;;;;;;5.63;2.60;;;;;;;20.52;55.92;103029.78;5031766;28;20029;-86
2022/07/08 05:26:30;;;;;;;9.25;3.20;;;;;;;20.64;55.55;103030.31;5031466;28;20045;-87
2022/07/08 05:28:55;;;;;;;5.93;2.47;;;;;;;20.93;54.80;103031.69;5030977;28;20417;-87
2022/07/08 05:31:21;;;;;;;9.47;2.67;;;;;;;21.12;54.74;103029.19;5029124;28;20034;-86
2022/07/08 05:33:46;;;;;;;13.00;2.40;;;;;;;21.26;53.36;103032.16;5029758;28;20750;-87
2022/07/08 05:36:11;;;;;;;7.57;2.60;;;;;;;21.36;53.24;103040.31;5030486;28;20018;-86
2022/07/08 05:38:36;;;;;;;9.20;3.00;;;;;;;21.61;52.00;103041.34;5029174;28;20086;-86
2022/07/08 05:41:02;;;;;;;10.87;2.70;;;;;;;21.60;52.17;103047.84;5029237;28;20037;-83
2022/07/08 05:43:27;;;;;;;8.33;2.17;;;;;;;21.53;51.59;103036.41;5029471;28;20052;-82
2022/07/08 05:45:52;;;;;;;15.63;3.23;;;;;;;21.74;51.67;103042.63;5026488;28;20041;-85
2022/07/08 05:48:18;;;;;;;9.52;2.47;;;;;;;21.69;51.45;103035.28;5032165;28;20034;-84
2022/07/08 05:50:43;;;;;;;10.77;2.40;;;;;;;21.76;50.80;103043.16;5031225;28;20112;-84
2022/07/08 05:53:08;;;;;;;11.43;2.50;;;;;;;21.59;51.44;103055.22;5030527;28;20115;-84
2022/07/08 05:55:34;;;;;;;8.03;1.70;;;;;;;21.28;51.68;103052.59;5033743;28;20032;-83
2022/07/08 05:57:59;;;;;;;8.43;2.03;;;;;;;20.97;52.26;103054.56;5029967;28;20027;-84
2022/07/08 06:00:25;;;;;;;9.43;2.43;;;;;;;20.86;53.19;103051.03;5030140;28;20033;-84
2022/07/08 06:02:50;;;;;;;9.23;2.27;;;;;;;20.69;53.62;103054.84;5027980;28;20034;-84
2022/07/08 06:05:15;;;;;;;8.67;2.07;;;;;;;20.52;54.36;103051.56;5014202;28;20026;-83
2022/07/08 06:07:41;;;;;;;11.60;2.42;;;;;;;20.35;54.96;103052.66;5025165;28;20033;-84
2022/07/08 06:10:07;;;;;;;10.37;2.10;;;;;;;20.09;54.75;103052.59;5028487;28;20061;-82
2022/07/08 06:12:34;;;;;;;10.70;2.17;;;;;;;19.60;55.97;103063.81;5028478;28;20025;-83
2022/07/08 06:14:59;;;;;;;11.88;1.88;;;;;;;19.21;57.74;103062.28;5028717;28;20038;-83
2022/07/08 06:17:24;;;;;;;10.33;1.67;;;;;;;18.74;59.12;103052.94;5029099;28;20037;-83
2022/07/08 06:19:50;;;;;;;9.17;2.00;;;;;;;18.62;60.08;103061.25;5030729;28;20463;-85
2022/07/08 06:22:15;;;;;;;10.50;2.30;;;;;;;18.39;61.02;103057.00;5042737;28;20033;-86
2022/07/08 06:24:40;;;;;;;5.53;1.77;;;;;;;18.34;61.67;103048.78;5024584;28;20105;-86
2022/07/08 06:27:06;;;;;;;13.80;1.93;;;;;;;18.17;61.66;103058.66;5030841;28;20032;-85
2022/07/08 06:29:31;;;;;;;13.50;1.90;;;;;;;17.96;62.28;103062.22;5030727;28;20017;-85
2022/07/08 06:32:02;;;;;;;8.27;2.10;;;;;;;17.79;63.23;103052.25;5028172;28;20068;-88
2022/07/08 06:34:27;;;;;;;11.07;1.75;;;;;;;17.65;63.06;103046.38;5025208;28;20057;-86
2022/07/08 06:36:52;;;;;;;8.73;1.70;;;;;;;17.44;64.11;103055.31;5024965;28;20151;-85
2022/07/08 06:39:17;;;;;;;8.73;1.47;;;;;;;17.43;65.05;103061.81;5025943;28;20041;-85
2022/07/08 06:41:43;;;;;;;7.57;1.73;;;;;;;17.23;64.89;103053.16;5024413;28;20036;-84
2022/07/08 06:44:08;;;;;;;7.07;1.47;;;;;;;17.29;65.19;103056.75;5025276;28;20029;-86
2022/07/08 06:46:33;;;;;;;10.63;1.60;;;;;;;17.30;64.78;103052.97;5025521;28;20458;-83
2022/07/08 06:48:58;;;;;;;9.45;1.52;;;;;;;17.40;64.93;103063.94;5023745;28;20033;-84
2022/07/08 06:51:25;;;;;;;12.27;2.03;;;;;;;17.43;64.36;103061.81;5023040;28;20538;-84
2022/07/08 06:56:34;;;;;;;6.53;1.30;;;;;;;17.58;64.97;103059.28;5024675;28;20303;-85
2022/07/08 06:59:00;;;;;;;14.82;1.55;;;;;;;17.63;64.43;103067.50;5023849;28;20033;-82
2022/07/08 07:01:28;;;;;;;7.30;1.60;;;;;;;17.61;63.40;103069.63;5024141;28;20064;-84
2022/07/08 07:03:53;;;;;;;6.57;1.48;;;;;;;17.64;64.06;103062.88;5037564;28;20033;-83
2022/07/08 07:06:21;;;;;;;6.87;1.63;;;;;;;17.64;64.12;103063.72;5036270;28;20037;-83
2022/07/08 07:08:47;;;;;;;6.68;1.27;;;;;;;17.54;63.81;103063.56;5027911;28;20105;-82
2022/07/08 07:11:13;;;;;;;10.93;1.27;;;;;;;17.71;64.42;103069.75;5023662;28;20022;-82
2022/07/08 07:13:38;;;;;;;12.00;1.80;;;;;;;17.65;64.01;103070.78;5022781;28;20295;-82
2022/07/08 07:16:04;;;;;;;9.03;1.67;;;;;;;17.44;65.19;103075.09;5042672;28;20112;-81
2022/07/08 07:18:29;;;;;;;8.07;1.50;;;;;;;17.54;66.16;103071.69;5040466;28;20056;-83
2022/07/08 07:20:55;;;;;;;9.52;1.60;;;;;;;17.45;64.81;103065.91;5030079;28;20071;-84
2022/07/08 07:23:20;;;;;;;9.90;1.53;;;;;;;17.62;64.84;103063.16;5030669;28;20022;-86
2022/07/08 07:25:45;;;;;;;9.43;1.53;;;;;;;18.07;64.99;103063.19;5030291;28;20040;-83
2022/07/08 07:28:10;;;;;;;10.60;1.90;;;;;;;18.31;62.13;103061.78;5013086;28;20021;-82
2022/07/08 07:30:36;;;;;;;7.27;1.60;;;;;;;18.65;61.29;103076.22;5036636;28;20025;-82
2022/07/08 07:33:01;;;;;;;6.57;1.30;;;;;;;18.54;61.53;103067.97;5034143;28;20369;-82
2022/07/08 07:35:26;;;;;;;8.53;1.53;;;;;;;18.47;62.37;103064.66;5030927;28;20028;-84
2022/07/08 07:37:52;;;;;;;12.60;1.80;;;;;;;18.35;61.14;103061.28;5029863;28;21008;-82
2022/07/08 07:40:18;;;;;;;9.20;1.73;;;;;;;18.19;61.63;103063.84;5029302;28;20136;-81
2022/07/08 07:42:43;;;;;;;10.27;1.23;;;;;;;18.17;60.92;103066.78;5030664;28;20116;-81
2022/07/08 07:45:08;;;;;;;11.20;1.80;;;;;;;18.30;61.72;103060.16;5030934;28;20055;-81
2022/07/08 07:47:34;;;;;;;11.87;1.97;;;;;;;18.58;62.30;103066.41;5030352;28;20108;-82
2022/07/08 07:50:00;;;;;;;7.43;1.65;;;;;;;18.74;60.07;103067.31;5008001;28;20125;-81
2022/07/08 07:52:25;;;;;;;11.77;1.83;;;;;;;18.99;59.99;103071.38;5027777;28;20073;-82
2022/07/08 07:54:50;;;;;;;8.73;1.50;;;;;;;19.16;60.46;103070.38;5030489;28;20496;-82
2022/07/08 07:57:16;;;;;;;6.27;1.20;;;;;;;19.05;59.00;103050.47;5028304;28;20017;-82
2022/07/08 07:59:41;;;;;;;10.83;1.50;;;;;;;19.00;58.08;103059.41;5030401;28;20466;-81
2022/07/08 08:02:06;;;;;;;6.50;1.37;;;;;;;19.22;59.55;103051.13;5028568;28;20785;-82
2022/07/08 08:04:32;;;;;;;8.70;1.57;;;;;;;19.54;59.56;103057.56;5029788;28;20045;-84
2022/07/08 08:06:57;;;;;;;9.93;1.43;;;;;;;19.57;58.37;103054.31;5030538;28;20497;-84
2022/07/08 08:09:23;;;;;;;8.10;1.40;;;;;;;19.59;57.90;103063.03;5030908;28;20025;-85
2022/07/08 08:11:49;;;;;;;8.80;1.40;;;;;;;19.61;58.69;103076.34;5028751;28;20998;-83
2022/07/08 08:14:14;;;;;;;7.63;1.43;;;;;;;19.61;58.43;103068.19;5018084;28;20032;-82
2022/07/08 08:16:39;;;;;;;9.55;1.40;;;;;;;19.73;58.23;103070.69;5046867;28;20025;-84
2022/07/08 08:19:05;;;;;;;11.70;1.70;;;;;;;19.80;57.91;103071.28;5031428;28;20048;-83
2022/07/08 08:21:30;;;;;;;7.23;1.80;;;;;;;20.15;57.46;103066.22;5030891;28;20025;-84
2022/07/08 08:23:56;;;;;;;12.97;1.90;;;;;;;20.30;57.32;103076.31;5034545;28;20030;-84
2022/07/08 08:26:22;;;;;;;6.15;1.52;;;;;;;20.25;54.67;103074.41;5034765;28;20678;-84
2022/07/08 08:28:48;;;;;;;9.20;1.55;;;;;;;20.04;55.14;103068.94;5016363;28;20025;-83
2022/07/08 08:31:13;;;;;;;9.40;1.83;;;;;;;20.01;54.16;103074.91;5037722;28;20525;-84
2022/07/08 08:33:38;;;;;;;7.63;1.30;;;;;;;20.03;55.16;103080.91;5038282;28;20396;-84
2022/07/08 08:36:04;;;;;;;18.50;2.00;;;;;;;19.90;56.25;103089.56;5039628;28;20028;-83
2022/07/08 08:38:29;;;;;;;9.70;1.65;;;;;;;20.11;56.45;103066.75;5036327;28;20481;-82
2022/07/08 08:40:59;;;;;;;10.17;1.70;;;;;;;20.52;56.79;103076.06;5033557;28;20385;-83
2022/07/08 08:43:25;;;;;;;9.50;1.80;;;;;;;20.47;57.19;103066.00;5034760;28;20025;-83
2022/07/08 08:45:52;;;;;;;11.50;1.80;;;;;;;20.66;55.77;103070.91;5034223;28;20032;-83
2022/07/08 08:48:22;;;;;;;7.15;1.73;;;;;;;20.85;54.31;103076.66;5033962;28;20517;-83
2022/07/08 08:50:54;;;;;;;7.73;1.63;;;;;;;20.95;54.90;103067.66;5031721;28;20388;-83
2022/07/08 08:53:29;;;;;;;5.77;1.50;;;;;;;21.08;53.13;103069.00;5033936;28;20280;-83
2022/07/08 08:55:55;;;;;;;6.15;1.42;;;;;;;21.00;49.06;103068.44;5034272;28;20030;-82
2022/07/08 08:58:21;;;;;;;7.57;1.75;;;;;;;21.17;49.83;103061.91;5033482;28;20034;-83
2022/07/08 09:00:47;;;;;;;5.53;1.23;;;;;;;21.52;49.30;103045.69;5030445;28;20048;-83
2022/07/08 09:03:12;;;;;;;6.83;1.43;;;;;;;21.69;49.20;103061.75;5033792;28;20025;-82
2022/07/08 09:05:37;;;;;;;6.65;1.52;;;;;;;21.74;49.21;103048.91;5033522;28;20029;-83
2022/07/08 09:08:03;;;;;;;6.80;1.37;;;;;;;22.08;48.62;103053.63;5033130;28;20033;-83
2022/07/08 09:10:28;;;;;;;9.30;1.80;;;;;;;22.20;50.81;103055.19;5032493;28;20083;-82
2022/07/08 09:13:10;;;;;;;7.93;1.60;;;;;;;22.27;51.11;103057.63;5033798;28;20080;-82
2022/07/08 09:15:39;;;;;;;10.15;1.90;;;;;;;22.11;48.58;103054.16;5004290;28;20026;-81
2022/07/08 09:18:07;;;;;;;10.00;1.92;;;;;;;22.03;49.65;103055.56;5022274;28;20470;-82
2022/07/08 09:20:40;;;;;;;5.63;1.45;;;;;;;22.02;48.52;103060.19;5031890;28;20025;-82
2022/07/08 09:23:16;;;;;;;5.60;1.70;;;;;;;22.26;48.22;103064.16;5033523;28;20392;-82
2022/07/08 09:25:44;;;;;;;7.15;1.40;;;;;;;22.27;47.34;103057.63;5033772;28;20029;-82
2022/07/08 09:28:09;;;;;;;8.32;1.90;;;;;;;22.52;47.36;103057.44;5032964;28;20489;-82
2022/07/08 09:30:34;;;;;;;10.00;1.77;;;;;;;22.80;47.42;103054.19;5034689;28;20084;-82
2022/07/08 09:33:02;;;;;;;7.90;1.47;;;;;;;23.20;45.94;103065.00;5033874;28;20026;-82
2022/07/08 09:35:36;;;;;;;9.40;1.80;;;;;;;23.83;46.82;103068.66;5033180;28;20033;-82
2022/07/08 09:38:08;;;;;;;8.10;1.58;;;;;;;24.37;45.40;103057.47;5032706;28;20040;-82
2022/07/08 09:40:35;;;;;;;8.43;1.77;;;;;;;24.79;43.84;103055.72;5032080;28;20017;-82
2022/07/08 09:43:02;;;;;;;5.68;1.50;;;;;;;25.47;42.11;103050.56;5033421;28;20104;-83
2022/07/08 09:45:33;;;;;;;6.70;1.75;;;;;;;25.68;41.13;103044.66;5032829;28;20418;-83
2022/07/08 09:48:06;;;;;;;7.27;2.00;;;;;;;25.66;40.71;103057.88;5032788;28;20034;-82
2022/07/08 09:50:37;;;;;;;7.70;2.27;;;;;;;25.83;39.00;103051.75;5031486;28;20300;-83
2022/07/08 09:53:16;;;;;;;11.85;2.05;;;;;;;25.49;42.07;103048.34;5033024;28;20393;-83
2022/07/08 09:55:44;;;;;;;7.07;1.83;;;;;;;25.44;41.42;103045.69;5032763;28;20024;-83
2022/07/08 09:58:13;;;;;;;9.45;1.90;;;;;;;25.58;42.63;103055.84;5032128;28;20045;-82
2022/07/08 10:00:40;;;;;;;7.53;1.80;;;;;;;25.70;41.30;103065.16;5031249;28;20025;-82
2022/07/08 10:03:05;;;;;;;5.50;1.50;;;;;;;25.90;41.42;103054.06;5032839;28;20056;-82
2022/07/08 10:05:31;;;;;;;6.57;2.00;;;;;;;25.79;39.92;103046.03;5032608;28;20025;-83
2022/07/08 10:07:56;;;;;;;8.33;1.53;;;;;;;25.59;41.66;103052.78;5032082;28;20128;-82
2022/07/08 10:10:24;;;;;;;4.63;1.17;;;;;;;25.49;41.27;103051.09;5031035;28;20024;-83
2022/07/08 10:12:50;;;;;;;9.27;1.95;;;;;;;25.61;41.51;103056.06;5032598;28;20105;-83
2022/07/08 10:15:17;;;;;;;7.15;2.10;;;;;;;25.79;41.54;103062.50;5032620;28;20036;-83
2022/07/08 10:17:43;;;;;;;6.90;1.92;;;;;;;25.70;42.55;103059.69;5031995;28;20065;-83
2022/07/08 10:20:10;;;;;;;11.23;2.08;;;;;;;25.44;42.46;103066.84;5031070;28;20033;-83
2022/07/08 10:22:38;;;;;;;6.83;2.00;;;;;;;25.07;42.99;103055.72;5032302;28;20033;-84
2022/07/08 10:25:04;;;;;;;8.17;1.87;;;;;;;25.17;43.15;103058.28;5032142;28;20300;-82
2022/07/08 10:27:30;;;;;;;10.55;2.65;;;;;;;25.02;43.08;103045.69;5036473;28;20021;-83
2022/07/08 10:30:14;;;;;;;6.63;1.73;;;;;;;24.65;43.72;103059.19;5010743;28;20033;-83
2022/07/08 10:32:39;;;;;;;10.33;1.83;;;;;;;24.46;43.41;103059.25;5025350;28;20304;-82
2022/07/08 10:35:10;;;;;;;9.73;1.65;;;;;;;24.56;43.40;103054.72;5031511;28;20022;-83
2022/07/08 10:37:57;;;;;;;7.47;1.70;;;;;;;24.88;44.18;103053.88;5030727;28;20531;-83
2022/07/08 10:40:40;;;;;;;10.03;1.50;;;;;;;25.04;43.54;103048.94;5030506;28;20037;-83
2022/07/08 10:43:27;;;;;;;4.57;1.60;;;;;;;25.15;43.30;103048.72;5031740;28;20276;-83
2022/07/08 10:46:23;;;;;;;5.60;1.50;;;;;;;25.13;43.62;103040.81;5029013;28;20041;-83
2022/07/08 10:48:59;;;;;;;8.82;1.85;;;;;;;25.05;43.32;103044.25;5011418;28;20059;-83
2022/07/08 10:51:24;;;;;;;4.32;1.55;;;;;;;25.03;43.89;103050.03;5031376;28;20022;-84
2022/07/08 10:53:55;;;;;;;7.00;1.80;;;;;;;25.10;44.32;103036.75;5031461;28;20662;-83
2022/07/08 10:56:56;;;;;;;11.45;2.00;;;;;;;25.26;43.14;103041.94;5030429;28;20026;-83
2022/07/08 10:59:33;;;;;;;7.03;1.95;;;;;;;25.49;42.88;103048.34;5030563;28;20485;-83
2022/07/08 11:02:11;;;;;;;9.07;1.70;;;;;;;26.30;42.08;103059.72;5030793;28;20029;-83
2022/07/08 11:04:37;;;;;;;5.97;1.70;;;;;;;26.68;41.08;103055.75;5027352;28;20044;-83
2022/07/08 11:07:14;;;;;;;6.97;2.00;;;;;;;26.45;41.23;103045.63;5031656;28;20038;-84
2022/07/08 11:09:41;;;;;;;4.70;1.90;;;;;;;25.97;40.72;103040.69;5029112;28;20032;-83
2022/07/08 11:12:13;;;;;;;8.50;2.08;;;;;;;25.52;41.98;103052.38;5030747;28;20040;-83
2022/07/08 11:14:43;;;;;;;6.30;1.70;;;;;;;25.26;42.95;103050.16;5031552;28;20052;-84
2022/07/08 11:17:22;;;;;;;9.00;1.90;;;;;;;25.25;43.65;103045.78;5029981;28;20086;-84
2022/07/08 11:19:49;;;;;;;6.70;1.85;;;;;;;25.96;43.78;103042.63;5030562;28;20448;-83
2022/07/08 11:22:15;;;;;;;6.93;2.08;;;;;;;26.32;42.17;103038.22;5030413;28;20072;-83
2022/07/08 11:24:43;;;;;;;8.03;1.87;;;;;;;26.62;41.42;103035.84;5030221;28;20022;-83